sensor_id;sensor_type;location;lat;lon;timestamp;P1;durP1;ratioP1;P2;durP2;ratioP2
19747;SDS011;10032;51.386;12.516;2024-03-23T00:54:37;11.90;;;5.97;;
19747;SDS011;10032;51.386;12.516;2024-03-23T00:57:02;12.90;;;7.30;;
19747;SDS011;10032;51.386;12.516;2024-03-23T00:59:28;11.73;;;7.00;;
19747;SDS011;10032;51.386;12.516;2024-03-23T01:01:53;12.27;;;6.07;;
19747;SDS011;10032;51.386;12.516;2024-03-23T01:04:19;11.50;;;8.30;;
19747;SDS011;10032;51.386;12.516;2024-03-23T01:06:45;9.93;;;5.83;;
19747;SDS011;10032;51.386;12.516;2024-03-23T01:09:11;11.23;;;6.80;;
19747;SDS011;10032;51.386;12.516;2024-03-23T01:11:36;11.13;;;5.90;;
19747;SDS011;10032;51.386;12.516;2024-03-23T01:14:02;11.10;;;6.33;;
19747;SDS011;10032;51.386;12.516;2024-03-23T01:16:28;9.40;;;5.97;;
19747;SDS011;10032;51.386;12.516;2024-03-23T01:18:53;10.23;;;6.33;;
19747;SDS011;10032;51.386;12.516;2024-03-23T01:21:19;10.67;;;6.83;;
19747;SDS011;10032;51.386;12.516;2024-03-23T01:23:44;10.93;;;6.83;;
19747;SDS011;10032;51.386;12.516;2024-03-23T01:26:10;10.03;;;5.87;;
19747;SDS011;10032;51.386;12.516;2024-03-23T01:28:35;10.93;;;7.03;;
19747;SDS011;10032;51.386;12.516;2024-03-23T01:31:00;10.13;;;5.40;;
19747;SDS011;10032;51.386;12.516;2024-03-23T01:33:26;11.13;;;6.53;;
19747;SDS011;10032;51.386;12.516;2024-03-23T01:35:51;10.73;;;6.50;;
19747;SDS011;10032;51.386;12.516;2024-03-23T01:38:16;8.97;;;5.10;;
19747;SDS011;10032;51.386;12.516;2024-03-23T01:40:42;9.47;;;4.93;;
19747;SDS011;10032;51.386;12.516;2024-03-23T01:43:07;8.13;;;5.80;;
19747;SDS011;10032;51.386;12.516;2024-03-23T01:45:33;10.50;;;5.80;;
19747;SDS011;10032;51.386;12.516;2024-03-23T01:47:59;9.63;;;5.80;;
19747;SDS011;10032;51.386;12.516;2024-03-23T01:50:25;10.27;;;5.43;;
19747;SDS011;10032;51.386;12.516;2024-03-23T01:52:51;8.73;;;5.47;;
19747;SDS011;10032;51.386;12.516;2024-03-23T01:55:17;8.57;;;4.90;;
19747;SDS011;10032;51.386;12.516;2024-03-23T01:57:43;10.07;;;6.03;;
19747;SDS011;10032;51.386;12.516;2024-03-23T02:00:08;6.67;;;4.13;;
19747;SDS011;10032;51.386;12.516;2024-03-23T02:02:40;7.77;;;3.30;;
19747;SDS011;10032;51.386;12.516;2024-03-23T02:05:08;7.37;;;4.40;;
19747;SDS011;10032;51.386;12.516;2024-03-23T02:07:33;6.97;;;4.20;;
19747;SDS011;10032;51.386;12.516;2024-03-23T02:09:59;9.50;;;4.00;;
19747;SDS011;10032;51.386;12.516;2024-03-23T02:12:25;5.83;;;3.70;;
19747;SDS011;10032;51.386;12.516;2024-03-23T02:14:51;8.13;;;4.27;;
19747;SDS011;10032;51.386;12.516;2024-03-23T02:17:16;5.30;;;4.23;;
19747;SDS011;10032;51.386;12.516;2024-03-23T02:19:42;6.00;;;3.80;;
19747;SDS011;10032;51.386;12.516;2024-03-23T02:22:07;7.97;;;4.80;;
19747;SDS011;10032;51.386;12.516;2024-03-23T02:24:32;4.37;;;3.33;;
19747;SDS011;10032;51.386;12.516;2024-03-23T02:26:59;4.20;;;2.57;;
19747;SDS011;10032;51.386;12.516;2024-03-23T02:29:24;4.37;;;3.30;;
19747;SDS011;10032;51.386;12.516;2024-03-23T02:31:49;4.37;;;3.10;;
19747;SDS011;10032;51.386;12.516;2024-03-23T02:34:15;4.30;;;3.13;;
19747;SDS011;10032;51.386;12.516;2024-03-23T02:36:40;5.07;;;3.00;;
19747;SDS011;10032;51.386;12.516;2024-03-23T02:39:06;3.57;;;2.07;;
19747;SDS011;10032;51.386;12.516;2024-03-23T02:41:31;4.37;;;2.70;;
19747;SDS011;10032;51.386;12.516;2024-03-23T02:43:57;3.60;;;2.07;;
19747;SDS011;10032;51.386;12.516;2024-03-23T02:46:22;4.67;;;3.13;;
19747;SDS011;10032;51.386;12.516;2024-03-23T02:48:50;4.63;;;2.50;;
19747;SDS011;10032;51.386;12.516;2024-03-23T02:51:16;3.37;;;2.80;;
19747;SDS011;10032;51.386;12.516;2024-03-23T02:53:41;4.53;;;2.63;;
19747;SDS011;10032;51.386;12.516;2024-03-23T02:56:07;4.60;;;2.17;;
19747;SDS011;10032;51.386;12.516;2024-03-23T02:58:33;4.47;;;2.17;;
19747;SDS011;10032;51.386;12.516;2024-03-23T03:00:58;3.93;;;1.97;;
19747;SDS011;10032;51.386;12.516;2024-03-23T03:03:24;3.97;;;2.57;;
19747;SDS011;10032;51.386;12.516;2024-03-23T03:05:54;3.67;;;1.97;;
19747;SDS011;10032;51.386;12.516;2024-03-23T03:08:21;5.43;;;2.27;;
19747;SDS011;10032;51.386;12.516;2024-03-23T03:10:46;3.57;;;1.90;;
19747;SDS011;10032;51.386;12.516;2024-03-23T03:13:11;4.77;;;2.50;;
19747;SDS011;10032;51.386;12.516;2024-03-23T03:15:37;3.37;;;1.97;;
19747;SDS011;10032;51.386;12.516;2024-03-23T03:18:02;2.37;;;1.63;;
19747;SDS011;10032;51.386;12.516;2024-03-23T03:20:28;3.33;;;2.20;;
19747;SDS011;10032;51.386;12.516;2024-03-23T03:22:53;4.73;;;2.20;;
19747;SDS011;10032;51.386;12.516;2024-03-23T03:25:18;3.23;;;2.20;;
19747;SDS011;10032;51.386;12.516;2024-03-23T03:27:44;2.03;;;1.53;;
19747;SDS011;10032;51.386;12.516;2024-03-23T03:30:09;2.90;;;1.87;;
19747;SDS011;10032;51.386;12.516;2024-03-23T03:32:35;4.50;;;2.00;;
19747;SDS011;10032;51.386;12.516;2024-03-23T03:35:00;3.00;;;2.00;;
19747;SDS011;10032;51.386;12.516;2024-03-23T03:37:26;3.47;;;2.23;;
19747;SDS011;10032;51.386;12.516;2024-03-23T03:39:51;3.17;;;2.47;;
19747;SDS011;10032;51.386;12.516;2024-03-23T03:42:16;3.37;;;2.60;;
19747;SDS011;10032;51.386;12.516;2024-03-23T03:44:42;4.27;;;2.67;;
19747;SDS011;10032;51.386;12.516;2024-03-23T03:47:07;2.67;;;1.90;;
19747;SDS011;10032;51.386;12.516;2024-03-23T03:49:33;3.67;;;2.10;;
19747;SDS011;10032;51.386;12.516;2024-03-23T03:51:58;3.27;;;2.43;;
19747;SDS011;10032;51.386;12.516;2024-03-23T03:54:26;2.23;;;2.03;;
19747;SDS011;10032;51.386;12.516;2024-03-23T03:56:51;3.83;;;2.37;;
19747;SDS011;10032;51.386;12.516;2024-03-23T03:59:17;2.87;;;2.20;;
19747;SDS011;10032;51.386;12.516;2024-03-23T04:01:42;3.53;;;2.10;;
19747;SDS011;10032;51.386;12.516;2024-03-23T04:04:07;3.00;;;1.63;;
19747;SDS011;10032;51.386;12.516;2024-03-23T04:06:33;3.10;;;2.57;;
19747;SDS011;10032;51.386;12.516;2024-03-23T04:08:58;3.27;;;2.00;;
19747;SDS011;10032;51.386;12.516;2024-03-23T04:11:24;4.70;;;2.17;;
19747;SDS011;10032;51.386;12.516;2024-03-23T04:13:49;2.20;;;1.90;;
19747;SDS011;10032;51.386;12.516;2024-03-23T04:16:24;2.63;;;2.20;;
19747;SDS011;10032;51.386;12.516;2024-03-23T04:18:58;4.23;;;2.80;;
19747;SDS011;10032;51.386;12.516;2024-03-23T04:21:24;3.50;;;2.03;;
19747;SDS011;10032;51.386;12.516;2024-03-23T04:23:49;3.83;;;2.00;;
19747;SDS011;10032;51.386;12.516;2024-03-23T04:26:15;4.07;;;2.30;;
19747;SDS011;10032;51.386;12.516;2024-03-23T04:28:41;1.87;;;1.70;;
19747;SDS011;10032;51.386;12.516;2024-03-23T04:31:07;4.07;;;1.97;;
19747;SDS011;10032;51.386;12.516;2024-03-23T04:33:32;4.87;;;2.53;;
19747;SDS011;10032;51.386;12.516;2024-03-23T04:35:57;2.77;;;1.80;;
19747;SDS011;10032;51.386;12.516;2024-03-23T04:38:23;3.70;;;3.23;;
19747;SDS011;10032;51.386;12.516;2024-03-23T04:40:58;2.83;;;2.00;;
19747;SDS011;10032;51.386;12.516;2024-03-23T04:43:25;2.43;;;2.23;;
19747;SDS011;10032;51.386;12.516;2024-03-23T04:45:51;3.07;;;1.90;;
19747;SDS011;10032;51.386;12.516;2024-03-23T04:48:19;2.90;;;2.23;;
19747;SDS011;10032;51.386;12.516;2024-03-23T04:50:45;4.53;;;2.60;;
19747;SDS011;10032;51.386;12.516;2024-03-23T04:53:10;2.40;;;1.70;;
19747;SDS011;10032;51.386;12.516;2024-03-23T04:55:36;2.53;;;1.90;;
19747;SDS011;10032;51.386;12.516;2024-03-23T04:58:02;5.77;;;1.80;;
19747;SDS011;10032;51.386;12.516;2024-03-23T05:00:28;2.67;;;1.80;;
19747;SDS011;10032;51.386;12.516;2024-03-23T05:02:53;2.43;;;1.90;;
19747;SDS011;10032;51.386;12.516;2024-03-23T05:05:18;3.53;;;2.47;;
19747;SDS011;10032;51.386;12.516;2024-03-23T05:07:44;3.57;;;1.70;;
19747;SDS011;10032;51.386;12.516;2024-03-23T05:10:09;2.87;;;1.97;;
19747;SDS011;10032;51.386;12.516;2024-03-23T05:12:38;2.83;;;1.80;;
19747;SDS011;10032;51.386;12.516;2024-03-23T05:15:04;2.77;;;1.70;;
19747;SDS011;10032;51.386;12.516;2024-03-23T05:17:31;2.30;;;1.87;;
19747;SDS011;10032;51.386;12.516;2024-03-23T05:19:57;2.50;;;1.83;;
19747;SDS011;10032;51.386;12.516;2024-03-23T05:22:22;3.33;;;1.80;;
19747;SDS011;10032;51.386;12.516;2024-03-23T05:24:48;5.63;;;2.30;;
19747;SDS011;10032;51.386;12.516;2024-03-23T05:27:13;2.27;;;2.00;;
19747;SDS011;10032;51.386;12.516;2024-03-23T05:29:39;2.63;;;1.87;;
19747;SDS011;10032;51.386;12.516;2024-03-23T05:32:05;1.70;;;1.50;;
19747;SDS011;10032;51.386;12.516;2024-03-23T05:34:30;4.87;;;2.13;;
19747;SDS011;10032;51.386;12.516;2024-03-23T05:36:56;3.77;;;2.20;;
19747;SDS011;10032;51.386;12.516;2024-03-23T05:39:21;2.87;;;2.53;;
19747;SDS011;10032;51.386;12.516;2024-03-23T05:41:47;5.00;;;2.67;;
19747;SDS011;10032;51.386;12.516;2024-03-23T05:44:13;3.37;;;2.07;;
19747;SDS011;10032;51.386;12.516;2024-03-23T05:46:40;2.43;;;1.60;;
19747;SDS011;10032;51.386;12.516;2024-03-23T05:49:05;2.63;;;2.03;;
19747;SDS011;10032;51.386;12.516;2024-03-23T05:51:31;2.67;;;1.87;;
19747;SDS011;10032;51.386;12.516;2024-03-23T05:53:56;3.47;;;2.47;;
19747;SDS011;10032;51.386;12.516;2024-03-23T05:56:22;2.43;;;1.77;;
19747;SDS011;10032;51.386;12.516;2024-03-23T05:58:47;4.20;;;2.00;;
19747;SDS011;10032;51.386;12.516;2024-03-23T06:01:13;3.20;;;1.83;;
19747;SDS011;10032;51.386;12.516;2024-03-23T06:03:39;2.77;;;2.27;;
19747;SDS011;10032;51.386;12.516;2024-03-23T06:06:04;2.60;;;2.13;;
19747;SDS011;10032;51.386;12.516;2024-03-23T06:08:30;2.37;;;2.03;;
19747;SDS011;10032;51.386;12.516;2024-03-23T06:10:55;3.30;;;1.80;;
19747;SDS011;10032;51.386;12.516;2024-03-23T06:13:21;3.50;;;2.50;;
19747;SDS011;10032;51.386;12.516;2024-03-23T06:15:54;2.67;;;2.00;;
19747;SDS011;10032;51.386;12.516;2024-03-23T06:18:20;3.37;;;2.10;;
19747;SDS011;10032;51.386;12.516;2024-03-23T06:20:45;3.27;;;2.10;;
19747;SDS011;10032;51.386;12.516;2024-03-23T06:23:11;3.27;;;1.80;;
19747;SDS011;10032;51.386;12.516;2024-03-23T06:25:37;4.07;;;2.70;;
19747;SDS011;10032;51.386;12.516;2024-03-23T06:28:03;3.83;;;2.30;;
19747;SDS011;10032;51.386;12.516;2024-03-23T06:30:29;2.80;;;2.50;;
19747;SDS011;10032;51.386;12.516;2024-03-23T06:32:56;4.17;;;3.50;;
19747;SDS011;10032;51.386;12.516;2024-03-23T06:35:22;4.33;;;2.53;;
19747;SDS011;10032;51.386;12.516;2024-03-23T06:37:47;3.03;;;2.43;;
19747;SDS011;10032;51.386;12.516;2024-03-23T06:40:13;4.23;;;2.53;;
19747;SDS011;10032;51.386;12.516;2024-03-23T06:42:38;3.43;;;2.63;;
19747;SDS011;10032;51.386;12.516;2024-03-23T06:45:04;4.87;;;3.13;;
19747;SDS011;10032;51.386;12.516;2024-03-23T06:47:30;3.53;;;2.60;;
19747;SDS011;10032;51.386;12.516;2024-03-23T06:49:56;7.27;;;3.17;;
19747;SDS011;10032;51.386;12.516;2024-03-23T06:52:21;3.73;;;2.50;;
19747;SDS011;10032;51.386;12.516;2024-03-23T06:54:47;6.17;;;3.63;;
19747;SDS011;10032;51.386;12.516;2024-03-23T06:57:12;7.17;;;4.03;;
19747;SDS011;10032;51.386;12.516;2024-03-23T06:59:38;5.03;;;2.87;;
19747;SDS011;10032;51.386;12.516;2024-03-23T07:02:06;7.63;;;3.20;;
19747;SDS011;10032;51.386;12.516;2024-03-23T07:04:33;4.10;;;2.37;;
19747;SDS011;10032;51.386;12.516;2024-03-23T07:06:59;5.47;;;4.20;;
19747;SDS011;10032;51.386;12.516;2024-03-23T07:09:24;5.13;;;3.20;;
19747;SDS011;10032;51.386;12.516;2024-03-23T07:11:53;5.27;;;3.57;;
19747;SDS011;10032;51.386;12.516;2024-03-23T07:14:19;4.83;;;3.40;;
19747;SDS011;10032;51.386;12.516;2024-03-23T07:16:44;6.07;;;3.53;;
19747;SDS011;10032;51.386;12.516;2024-03-23T07:19:10;8.07;;;3.93;;
19747;SDS011;10032;51.386;12.516;2024-03-23T07:21:35;7.13;;;3.73;;
19747;SDS011;10032;51.386;12.516;2024-03-23T07:24:01;7.43;;;3.80;;
19747;SDS011;10032;51.386;12.516;2024-03-23T07:26:26;6.40;;;3.20;;
19747;SDS011;10032;51.386;12.516;2024-03-23T07:28:51;6.73;;;4.67;;
19747;SDS011;10032;51.386;12.516;2024-03-23T07:31:18;6.53;;;3.53;;
19747;SDS011;10032;51.386;12.516;2024-03-23T07:33:44;7.17;;;3.30;;
19747;SDS011;10032;51.386;12.516;2024-03-23T07:36:11;5.30;;;2.73;;
19747;SDS011;10032;51.386;12.516;2024-03-23T07:38:37;5.37;;;3.87;;
19747;SDS011;10032;51.386;12.516;2024-03-23T07:41:06;6.57;;;3.10;;
19747;SDS011;10032;51.386;12.516;2024-03-23T07:43:35;3.73;;;2.50;;
19747;SDS011;10032;51.386;12.516;2024-03-23T07:46:02;4.37;;;2.43;;
19747;SDS011;10032;51.386;12.516;2024-03-23T07:48:31;2.63;;;2.00;;
19747;SDS011;10032;51.386;12.516;2024-03-23T07:50:57;3.87;;;2.10;;
19747;SDS011;10032;51.386;12.516;2024-03-23T07:53:29;3.13;;;1.77;;
19747;SDS011;10032;51.386;12.516;2024-03-23T07:55:59;8.43;;;3.27;;
19747;SDS011;10032;51.386;12.516;2024-03-23T07:58:31;2.27;;;1.40;;
19747;SDS011;10032;51.386;12.516;2024-03-23T08:01:02;2.50;;;1.77;;
19747;SDS011;10032;51.386;12.516;2024-03-23T08:03:35;3.50;;;1.77;;
19747;SDS011;10032;51.386;12.516;2024-03-23T08:06:18;2.57;;;0.97;;
19747;SDS011;10032;51.386;12.516;2024-03-23T08:08:45;0.77;;;0.70;;
19747;SDS011;10032;51.386;12.516;2024-03-23T08:11:12;1.43;;;1.00;;
19747;SDS011;10032;51.386;12.516;2024-03-23T08:13:41;2.43;;;0.70;;
19747;SDS011;10032;51.386;12.516;2024-03-23T08:16:08;1.77;;;0.90;;
19747;SDS011;10032;51.386;12.516;2024-03-23T08:18:34;1.03;;;0.60;;
19747;SDS011;10032;51.386;12.516;2024-03-23T08:21:00;2.30;;;0.87;;
19747;SDS011;10032;51.386;12.516;2024-03-23T08:23:28;1.87;;;1.10;;
19747;SDS011;10032;51.386;12.516;2024-03-23T08:25:57;0.77;;;0.47;;
19747;SDS011;10032;51.386;12.516;2024-03-23T08:28:24;0.83;;;0.60;;
19747;SDS011;10032;51.386;12.516;2024-03-23T08:30:49;0.47;;;0.47;;
19747;SDS011;10032;51.386;12.516;2024-03-23T08:33:15;0.40;;;0.40;;
19747;SDS011;10032;51.386;12.516;2024-03-23T08:35:41;0.40;;;0.30;;
19747;SDS011;10032;51.386;12.516;2024-03-23T08:38:07;0.73;;;0.50;;
19747;SDS011;10032;51.386;12.516;2024-03-23T08:40:32;1.33;;;1.20;;
19747;SDS011;10032;51.386;12.516;2024-03-23T08:42:58;0.30;;;0.30;;
19747;SDS011;10032;51.386;12.516;2024-03-23T08:45:24;0.33;;;0.30;;
19747;SDS011;10032;51.386;12.516;2024-03-23T08:47:50;0.40;;;0.30;;
19747;SDS011;10032;51.386;12.516;2024-03-23T08:50:15;0.30;;;0.30;;
19747;SDS011;10032;51.386;12.516;2024-03-23T08:52:41;1.03;;;0.93;;
19747;SDS011;10032;51.386;12.516;2024-03-23T08:55:06;0.47;;;0.40;;
19747;SDS011;10032;51.386;12.516;2024-03-23T08:57:32;0.87;;;0.70;;
19747;SDS011;10032;51.386;12.516;2024-03-23T08:59:57;1.60;;;1.30;;
19747;SDS011;10032;51.386;12.516;2024-03-23T09:02:23;0.50;;;0.50;;
19747;SDS011;10032;51.386;12.516;2024-03-23T09:04:48;1.57;;;0.63;;
19747;SDS011;10032;51.386;12.516;2024-03-23T09:07:13;0.57;;;0.57;;
19747;SDS011;10032;51.386;12.516;2024-03-23T09:09:39;1.07;;;0.60;;
19747;SDS011;10032;51.386;12.516;2024-03-23T09:12:05;0.97;;;0.60;;
19747;SDS011;10032;51.386;12.516;2024-03-23T09:14:31;0.70;;;0.70;;
19747;SDS011;10032;51.386;12.516;2024-03-23T09:16:58;0.80;;;0.80;;
19747;SDS011;10032;51.386;12.516;2024-03-23T09:19:23;0.60;;;0.60;;
19747;SDS011;10032;51.386;12.516;2024-03-23T09:21:49;1.47;;;0.80;;
19747;SDS011;10032;51.386;12.516;2024-03-23T09:24:14;2.80;;;1.20;;
19747;SDS011;10032;51.386;12.516;2024-03-23T09:26:39;1.10;;;0.97;;
19747;SDS011;10032;51.386;12.516;2024-03-23T09:29:05;1.07;;;0.60;;
19747;SDS011;10032;51.386;12.516;2024-03-23T09:31:30;1.20;;;1.10;;
19747;SDS011;10032;51.386;12.516;2024-03-23T09:33:57;1.90;;;0.87;;
19747;SDS011;10032;51.386;12.516;2024-03-23T09:36:23;1.07;;;0.97;;
19747;SDS011;10032;51.386;12.516;2024-03-23T09:38:48;1.07;;;0.80;;
19747;SDS011;10032;51.386;12.516;2024-03-23T09:41:14;2.50;;;1.67;;
19747;SDS011;10032;51.386;12.516;2024-03-23T09:43:40;1.13;;;1.03;;
19747;SDS011;10032;51.386;12.516;2024-03-23T09:46:05;1.80;;;1.70;;
19747;SDS011;10032;51.386;12.516;2024-03-23T09:48:31;1.83;;;0.80;;
19747;SDS011;10032;51.386;12.516;2024-03-23T09:50:56;0.77;;;0.67;;
19747;SDS011;10032;51.386;12.516;2024-03-23T09:53:22;4.07;;;1.13;;
19747;SDS011;10032;51.386;12.516;2024-03-23T09:55:47;1.13;;;1.00;;
19747;SDS011;10032;51.386;12.516;2024-03-23T09:58:14;1.67;;;0.80;;
19747;SDS011;10032;51.386;12.516;2024-03-23T10:00:41;0.70;;;0.70;;
19747;SDS011;10032;51.386;12.516;2024-03-23T10:03:06;1.47;;;0.90;;
19747;SDS011;10032;51.386;12.516;2024-03-23T10:05:32;1.87;;;1.00;;
19747;SDS011;10032;51.386;12.516;2024-03-23T10:08:16;1.23;;;0.90;;
19747;SDS011;10032;51.386;12.516;2024-03-23T10:10:44;1.47;;;1.30;;
19747;SDS011;10032;51.386;12.516;2024-03-23T10:13:10;1.10;;;0.97;;
19747;SDS011;10032;51.386;12.516;2024-03-23T10:15:39;1.50;;;1.07;;
19747;SDS011;10032;51.386;12.516;2024-03-23T10:18:26;1.60;;;1.50;;
19747;SDS011;10032;51.386;12.516;2024-03-23T10:20:52;1.13;;;0.83;;
19747;SDS011;10032;51.386;12.516;2024-03-23T10:23:33;1.23;;;0.67;;
19747;SDS011;10032;51.386;12.516;2024-03-23T10:31:19;0.93;;;0.93;;
19747;SDS011;10032;51.386;12.516;2024-03-23T10:33:45;0.67;;;0.67;;
19747;SDS011;10032;51.386;12.516;2024-03-23T10:36:12;0.63;;;0.63;;
19747;SDS011;10032;51.386;12.516;2024-03-23T10:38:39;0.50;;;0.50;;
19747;SDS011;10032;51.386;12.516;2024-03-23T10:41:06;0.80;;;0.80;;
19747;SDS011;10032;51.386;12.516;2024-03-23T10:43:33;0.40;;;0.40;;
19747;SDS011;10032;51.386;12.516;2024-03-23T10:45:59;0.80;;;0.60;;
19747;SDS011;10032;51.386;12.516;2024-03-23T10:48:24;0.50;;;0.50;;
19747;SDS011;10032;51.386;12.516;2024-03-23T10:50:50;1.13;;;0.70;;
19747;SDS011;10032;51.386;12.516;2024-03-23T10:53:15;0.97;;;0.77;;
19747;SDS011;10032;51.386;12.516;2024-03-23T10:55:42;0.90;;;0.80;;
19747;SDS011;10032;51.386;12.516;2024-03-23T10:58:08;1.10;;;1.00;;
19747;SDS011;10032;51.386;12.516;2024-03-23T11:00:37;1.27;;;1.17;;
19747;SDS011;10032;51.386;12.516;2024-03-23T11:06:05;1.27;;;1.17;;
19747;SDS011;10032;51.386;12.516;2024-03-23T11:08:38;1.43;;;1.33;;
19747;SDS011;10032;51.386;12.516;2024-03-23T11:11:17;1.77;;;1.60;;
19747;SDS011;10032;51.386;12.516;2024-03-23T11:13:44;1.70;;;1.60;;
19747;SDS011;10032;51.386;12.516;2024-03-23T11:18:41;1.80;;;1.70;;
19747;SDS011;10032;51.386;12.516;2024-03-23T11:21:08;2.60;;;2.00;;
19747;SDS011;10032;51.386;12.516;2024-03-23T11:23:34;1.90;;;1.70;;
19747;SDS011;10032;51.386;12.516;2024-03-23T11:26:00;2.77;;;2.00;;
19747;SDS011;10032;51.386;12.516;2024-03-23T11:28:25;4.80;;;1.90;;
19747;SDS011;10032;51.386;12.516;2024-03-23T11:30:51;1.67;;;1.50;;
19747;SDS011;10032;51.386;12.516;2024-03-23T11:33:17;2.27;;;2.07;;
19747;SDS011;10032;51.386;12.516;2024-03-23T11:35:42;2.67;;;1.47;;
19747;SDS011;10032;51.386;12.516;2024-03-23T11:38:14;1.50;;;1.40;;
19747;SDS011;10032;51.386;12.516;2024-03-23T11:40:46;2.20;;;1.70;;
19747;SDS011;10032;51.386;12.516;2024-03-23T11:43:14;1.70;;;1.60;;
19747;SDS011;10032;51.386;12.516;2024-03-23T11:45:52;2.40;;;2.10;;
19747;SDS011;10032;51.386;12.516;2024-03-23T11:48:19;1.57;;;1.33;;
19747;SDS011;10032;51.386;12.516;2024-03-23T11:50:47;2.17;;;1.63;;
19747;SDS011;10032;51.386;12.516;2024-03-23T11:55:52;8.43;;;1.90;;
19747;SDS011;10032;51.386;12.516;2024-03-23T11:58:19;1.47;;;1.33;;
19747;SDS011;10032;51.386;12.516;2024-03-23T12:00:49;1.60;;;1.20;;
19747;SDS011;10032;51.386;12.516;2024-03-23T12:03:25;2.53;;;1.40;;
19747;SDS011;10032;51.386;12.516;2024-03-23T12:05:53;2.67;;;1.83;;
19747;SDS011;10032;51.386;12.516;2024-03-23T12:08:30;1.93;;;1.23;;
19747;SDS011;10032;51.386;12.516;2024-03-23T12:11:06;1.80;;;1.53;;
19747;SDS011;10032;51.386;12.516;2024-03-23T12:13:32;2.40;;;1.37;;
19747;SDS011;10032;51.386;12.516;2024-03-23T12:16:19;4.93;;;1.90;;
19747;SDS011;10032;51.386;12.516;2024-03-23T12:18:46;1.13;;;1.03;;
19747;SDS011;10032;51.386;12.516;2024-03-23T12:21:12;1.20;;;1.10;;
19747;SDS011;10032;51.386;12.516;2024-03-23T12:23:41;1.40;;;1.30;;
19747;SDS011;10032;51.386;12.516;2024-03-23T12:26:09;1.77;;;1.20;;
19747;SDS011;10032;51.386;12.516;2024-03-23T12:28:35;2.57;;;1.70;;
19747;SDS011;10032;51.386;12.516;2024-03-23T12:31:00;1.87;;;1.30;;
19747;SDS011;10032;51.386;12.516;2024-03-23T12:33:25;2.30;;;1.57;;
19747;SDS011;10032;51.386;12.516;2024-03-23T12:35:51;1.70;;;1.13;;
19747;SDS011;10032;51.386;12.516;2024-03-23T12:38:17;1.10;;;1.00;;
19747;SDS011;10032;51.386;12.516;2024-03-23T12:40:46;1.03;;;0.80;;
19747;SDS011;10032;51.386;12.516;2024-03-23T12:43:14;6.77;;;1.80;;
19747;SDS011;10032;51.386;12.516;2024-03-23T12:45:40;1.10;;;1.00;;
19747;SDS011;10032;51.386;12.516;2024-03-23T12:48:06;1.67;;;1.00;;
19747;SDS011;10032;51.386;12.516;2024-03-23T12:50:32;1.17;;;0.63;;
19747;SDS011;10032;51.386;12.516;2024-03-23T12:52:58;1.07;;;0.90;;
19747;SDS011;10032;51.386;12.516;2024-03-23T12:55:23;2.27;;;1.17;;
19747;SDS011;10032;51.386;12.516;2024-03-23T12:57:48;1.87;;;1.30;;
19747;SDS011;10032;51.386;12.516;2024-03-23T13:00:14;4.10;;;2.33;;
19747;SDS011;10032;51.386;12.516;2024-03-23T13:02:41;1.10;;;1.00;;
19747;SDS011;10032;51.386;12.516;2024-03-23T13:05:07;1.83;;;1.20;;
19747;SDS011;10032;51.386;12.516;2024-03-23T13:07:35;0.80;;;0.80;;
19747;SDS011;10032;51.386;12.516;2024-03-23T13:10:02;1.00;;;0.83;;
19747;SDS011;10032;51.386;12.516;2024-03-23T13:12:28;1.20;;;1.10;;
19747;SDS011;10032;51.386;12.516;2024-03-23T13:14:54;1.47;;;1.00;;
19747;SDS011;10032;51.386;12.516;2024-03-23T13:17:19;0.90;;;0.87;;
19747;SDS011;10032;51.386;12.516;2024-03-23T13:19:44;2.07;;;0.93;;
19747;SDS011;10032;51.386;12.516;2024-03-23T13:22:10;1.50;;;1.10;;
19747;SDS011;10032;51.386;12.516;2024-03-23T13:24:36;5.10;;;1.43;;
19747;SDS011;10032;51.386;12.516;2024-03-23T13:27:02;1.10;;;1.00;;
19747;SDS011;10032;51.386;12.516;2024-03-23T13:29:27;1.70;;;1.60;;
19747;SDS011;10032;51.386;12.516;2024-03-23T13:31:53;2.67;;;1.60;;
19747;SDS011;10032;51.386;12.516;2024-03-23T13:34:18;1.63;;;1.30;;
19747;SDS011;10032;51.386;12.516;2024-03-23T13:36:45;2.97;;;1.70;;
19747;SDS011;10032;51.386;12.516;2024-03-23T13:39:12;5.53;;;2.00;;
19747;SDS011;10032;51.386;12.516;2024-03-23T13:44:07;4.80;;;2.00;;
19747;SDS011;10032;51.386;12.516;2024-03-23T13:46:33;3.23;;;2.23;;
19747;SDS011;10032;51.386;12.516;2024-03-23T13:48:58;1.77;;;1.60;;
19747;SDS011;10032;51.386;12.516;2024-03-23T13:51:24;3.77;;;1.80;;
19747;SDS011;10032;51.386;12.516;2024-03-23T13:53:52;2.23;;;1.70;;
19747;SDS011;10032;51.386;12.516;2024-03-23T13:56:18;2.47;;;1.60;;
19747;SDS011;10032;51.386;12.516;2024-03-23T13:58:43;2.53;;;1.80;;
19747;SDS011;10032;51.386;12.516;2024-03-23T14:01:11;3.67;;;2.30;;
19747;SDS011;10032;51.386;12.516;2024-03-23T14:03:38;5.80;;;2.20;;
19747;SDS011;10032;51.386;12.516;2024-03-23T14:06:03;2.13;;;1.83;;
19747;SDS011;10032;51.386;12.516;2024-03-23T14:08:29;5.30;;;2.63;;
19747;SDS011;10032;51.386;12.516;2024-03-23T14:10:58;3.40;;;1.90;;
19747;SDS011;10032;51.386;12.516;2024-03-23T14:13:23;1.70;;;1.57;;
19747;SDS011;10032;51.386;12.516;2024-03-23T14:15:52;2.43;;;1.37;;
19747;SDS011;10032;51.386;12.516;2024-03-23T14:18:18;1.57;;;1.47;;
19747;SDS011;10032;51.386;12.516;2024-03-23T14:20:43;1.80;;;1.33;;
19747;SDS011;10032;51.386;12.516;2024-03-23T14:23:09;2.53;;;1.93;;
19747;SDS011;10032;51.386;12.516;2024-03-23T14:25:34;2.93;;;1.50;;
19747;SDS011;10032;51.386;12.516;2024-03-23T14:28:00;3.20;;;1.83;;
19747;SDS011;10032;51.386;12.516;2024-03-23T14:30:25;2.23;;;1.63;;
19747;SDS011;10032;51.386;12.516;2024-03-23T14:32:50;3.20;;;1.87;;
19747;SDS011;10032;51.386;12.516;2024-03-23T14:35:16;2.33;;;1.83;;
19747;SDS011;10032;51.386;12.516;2024-03-23T14:37:41;3.40;;;1.90;;
19747;SDS011;10032;51.386;12.516;2024-03-23T14:40:07;1.50;;;0.97;;
19747;SDS011;10032;51.386;12.516;2024-03-23T14:42:33;1.43;;;1.10;;
19747;SDS011;10032;51.386;12.516;2024-03-23T14:44:58;2.23;;;1.20;;
19747;SDS011;10032;51.386;12.516;2024-03-23T14:47:24;1.23;;;1.13;;
19747;SDS011;10032;51.386;12.516;2024-03-23T14:49:49;1.57;;;1.47;;
19747;SDS011;10032;51.386;12.516;2024-03-23T14:52:17;1.30;;;1.20;;
19747;SDS011;10032;51.386;12.516;2024-03-23T14:54:46;2.00;;;1.50;;
19747;SDS011;10032;51.386;12.516;2024-03-23T14:57:11;2.07;;;1.57;;
19747;SDS011;10032;51.386;12.516;2024-03-23T14:59:38;3.27;;;2.10;;
19747;SDS011;10032;51.386;12.516;2024-03-23T15:02:05;3.57;;;1.50;;
19747;SDS011;10032;51.386;12.516;2024-03-23T15:04:31;2.10;;;1.30;;
19747;SDS011;10032;51.386;12.516;2024-03-23T15:06:57;2.10;;;1.47;;
19747;SDS011;10032;51.386;12.516;2024-03-23T15:09:22;2.33;;;1.90;;
19747;SDS011;10032;51.386;12.516;2024-03-23T15:11:47;4.10;;;2.00;;
19747;SDS011;10032;51.386;12.516;2024-03-23T15:14:13;2.87;;;2.00;;
19747;SDS011;10032;51.386;12.516;2024-03-23T15:16:38;2.80;;;1.90;;
19747;SDS011;10032;51.386;12.516;2024-03-23T15:19:04;12.63;;;2.60;;
19747;SDS011;10032;51.386;12.516;2024-03-23T15:21:31;1.60;;;1.50;;
19747;SDS011;10032;51.386;12.516;2024-03-23T15:23:57;1.77;;;1.40;;
19747;SDS011;10032;51.386;12.516;2024-03-23T15:26:22;1.17;;;0.90;;
19747;SDS011;10032;51.386;12.516;2024-03-23T15:28:48;1.43;;;1.30;;
19747;SDS011;10032;51.386;12.516;2024-03-23T15:31:22;2.73;;;1.80;;
19747;SDS011;10032;51.386;12.516;2024-03-23T15:33:48;2.07;;;1.40;;
19747;SDS011;10032;51.386;12.516;2024-03-23T15:36:13;2.80;;;1.17;;
19747;SDS011;10032;51.386;12.516;2024-03-23T15:38:39;2.67;;;1.83;;